Time;durP1;ratioP1;P1;durP2;ratioP2;P2;SDS_P1;SDS_P2;PMS_P1;PMS_P2;Temp;Humidity;BMP_temperature;BMP_pressure;BME280_temperature;BME280_humidity;BME280_pressure;Samples;Min_cycle;Max_cycle;Signal;HPM_P1;HPM_P2
2022/11/24 00:01:32;;;;;;;5.07;1.98;;;8.20;99.90;;;8.16;100.00;99953.22;5105365;29;20059;-74
2022/11/24 00:04:06;;;;;;;6.85;1.95;;;8.20;99.90;;;8.15;100.00;99954.94;5105225;29;20427;-75
2022/11/24 00:06:39;;;;;;;3.13;1.77;;;8.20;99.90;;;8.14;100.00;99957.44;5104093;29;20073;-74
2022/11/24 00:09:12;;;;;;;4.65;1.70;;;8.20;99.90;;;8.13;100.00;99953.97;5104869;29;20039;-74
2022/11/24 00:11:44;;;;;;;3.97;1.60;;;8.20;99.90;;;8.10;100.00;99953.91;5105546;29;20054;-74
2022/11/24 00:14:17;;;;;;;4.30;1.63;;;8.20;99.90;;;8.10;100.00;99963.41;5105070;29;20035;-74
2022/11/24 00:16:49;;;;;;;3.60;1.85;;;8.20;99.90;;;8.08;100.00;99952.06;5103252;29;20052;-74
2022/11/24 00:19:21;;;;;;;3.88;1.58;;;8.20;99.90;;;8.07;100.00;99958.97;5104530;29;20493;-74
2022/11/24 00:21:54;;;;;;;4.05;1.60;;;8.20;99.90;;;8.07;100.00;99958.09;5105050;29;20500;-74
2022/11/24 00:24:26;;;;;;;3.70;1.50;;;8.20;99.90;;;8.05;100.00;99960.66;5104566;29;20075;-74
2022/11/24 00:26:59;;;;;;;3.42;1.50;;;8.10;99.90;;;8.04;100.00;99958.91;5104711;29;20043;-73
2022/11/24 00:29:31;;;;;;;1.83;1.20;;;8.10;99.90;;;8.04;100.00;99958.91;5104491;29;20048;-74
2022/11/24 00:32:06;;;;;;;4.13;1.35;;;8.10;99.90;;;8.00;100.00;99956.16;5104223;28;20054;-74
2022/11/24 00:34:40;;;;;;;4.20;1.50;;;8.10;99.90;;;7.97;100.00;99959.53;5103661;29;20066;-73
2022/11/24 00:37:14;;;;;;;2.28;1.27;;;8.00;99.90;;;7.96;100.00;99959.50;5115219;28;20048;-74
2022/11/24 00:39:46;;;;;;;2.75;1.30;;;8.00;99.90;;;7.94;100.00;99956.81;5103307;29;20064;-74
2022/11/24 00:42:18;;;;;;;4.28;1.38;;;8.00;99.90;;;7.93;100.00;99960.25;5104612;29;20051;-74
2022/11/24 00:44:50;;;;;;;2.72;1.30;;;8.00;99.90;;;7.92;100.00;99955.03;5103336;29;20047;-74
2022/11/24 00:47:22;;;;;;;3.80;1.35;;;8.00;99.90;;;7.90;100.00;99960.19;5102427;29;20046;-74
2022/11/24 00:49:54;;;;;;;4.65;1.92;;;8.00;99.90;;;7.89;100.00;99959.28;5103894;29;20488;-75
2022/11/24 00:52:28;;;;;;;8.00;1.40;;;8.00;99.90;;;7.91;100.00;99971.44;5103108;29;20060;-74
2022/11/24 00:55:00;;;;;;;5.13;1.35;;;8.00;99.90;;;7.91;100.00;99967.13;5118226;29;20600;-74
2022/11/24 00:57:35;;;;;;;7.25;1.60;;;8.00;99.90;;;7.93;100.00;99969.75;5103201;28;20431;-74
2022/11/24 01:00:09;;;;;;;7.05;1.88;;;8.00;99.90;;;7.96;100.00;99975.06;5100845;29;20134;-74
2022/11/24 01:02:41;;;;;;;3.78;1.50;;;8.10;99.90;;;8.00;100.00;99987.28;5103628;29;20039;-74
2022/11/24 01:05:13;;;;;;;4.10;1.40;;;8.10;99.90;;;8.03;100.00;99980.50;5103759;29;20043;-74
2022/11/24 01:07:47;;;;;;;6.03;1.60;;;8.10;99.90;;;8.07;100.00;99984.06;5104130;29;20050;-75
2022/11/24 01:10:19;;;;;;;3.78;1.60;;;8.20;99.90;;;8.09;100.00;99996.25;5134738;28;20143;-74
2022/11/24 01:12:52;;;;;;;4.53;1.55;;;8.20;99.90;;;8.12;100.00;99992.88;5104031;29;20068;-75
2022/11/24 01:15:26;;;;;;;5.38;1.40;;;8.30;99.90;;;8.16;100.00;99999.94;5103651;29;20055;-74
2022/11/24 01:17:58;;;;;;;3.80;1.20;;;8.20;99.90;;;8.18;100.00;99999.97;5103721;29;20078;-74
2022/11/24 01:20:30;;;;;;;4.65;1.23;;;8.30;99.90;;;8.19;100.00;100000.03;5103939;29;20067;-75
2022/11/24 01:23:03;;;;;;;7.25;1.75;;;8.30;99.90;;;8.20;100.00;100001.78;5103963;29;20058;-74
2022/11/24 01:25:39;;;;;;;7.20;2.00;;;8.30;99.90;;;8.23;100.00;100001.88;5102361;29;20139;-75
2022/11/24 01:28:11;;;;;;;5.95;1.58;;;8.30;99.90;;;8.24;100.00;100007.97;5102361;29;20058;-75
2022/11/24 01:30:45;;;;;;;4.32;1.45;;;8.30;99.90;;;8.27;100.00;100013.25;5113915;29;20057;-74
2022/11/24 01:33:18;;;;;;;3.85;1.10;;;8.30;99.90;;;8.28;100.00;100013.31;5103998;28;20059;-74
2022/11/24 01:35:50;;;;;;;5.07;1.50;;;8.40;99.90;;;8.30;100.00;100016.81;5103887;29;20135;-74
2022/11/24 01:38:24;;;;;;;5.38;1.48;;;8.40;99.90;;;8.33;100.00;100019.50;5103613;29;20142;-75
2022/11/24 01:41:08;;;;;;;4.20;1.50;;;8.40;99.90;;;8.34;100.00;100016.06;5103752;29;20171;-74
2022/11/24 01:43:42;;;;;;;6.15;1.33;;;8.40;99.90;;;8.34;100.00;100013.47;5103739;29;20046;-74
2022/11/24 01:46:21;;;;;;;7.38;1.48;;;8.50;99.90;;;8.36;100.00;100014.47;5103058;28;20310;-74
2022/11/24 01:49:03;;;;;;;1.60;0.90;;;8.50;99.90;;;8.37;100.00;100011.03;5103532;29;20048;-74
2022/11/24 01:51:40;;;;;;;6.82;1.30;;;8.50;99.90;;;8.39;100.00;100019.72;5103338;29;20126;-74
2022/11/24 01:54:20;;;;;;;6.95;1.20;;;8.50;99.90;;;8.41;100.00;100023.28;5102263;29;20146;-74
2022/11/24 01:56:58;;;;;;;4.05;1.20;;;8.50;99.90;;;8.44;100.00;100022.47;5102137;29;20094;-74
2022/11/24 01:59:31;;;;;;;3.00;0.95;;;8.50;99.90;;;8.46;100.00;100025.13;5105302;29;20553;-74
2022/11/24 02:02:04;;;;;;;6.38;1.52;;;8.50;99.90;;;8.47;100.00;100032.06;5107413;29;20120;-74
2022/11/24 02:04:37;;;;;;;6.30;1.50;;;8.50;99.90;;;8.49;100.00;100031.31;5107941;29;20048;-74
2022/11/24 02:07:10;;;;;;;5.55;1.33;;;8.60;99.90;;;8.49;100.00;100027.81;5106054;29;20423;-74
2022/11/24 02:09:49;;;;;;;6.35;1.50;;;8.60;99.90;;;8.51;100.00;100033.94;5107333;29;20130;-75
2022/11/24 02:12:22;;;;;;;3.85;1.10;;;8.60;99.90;;;8.52;100.00;100030.50;5107168;29;20044;-74
2022/11/24 02:14:55;;;;;;;5.22;1.02;;;8.60;99.90;;;8.52;100.00;100038.28;5106161;29;20082;-74
2022/11/24 02:17:27;;;;;;;7.07;1.70;;;8.60;99.90;;;8.51;100.00;100033.94;5105610;29;20051;-74
2022/11/24 02:20:04;;;;;;;5.13;1.40;;;8.60;99.90;;;8.48;100.00;100037.34;5107013;29;20044;-76
2022/11/24 02:22:46;;;;;;;6.70;1.75;;;8.60;99.90;;;8.45;100.00;100038.94;5106958;29;20031;-74
2022/11/24 02:25:29;;;;;;;3.90;1.50;;;8.60;99.90;;;8.43;100.00;100039.78;5107553;29;20039;-74
2022/11/24 02:28:10;;;;;;;6.72;1.40;;;8.50;99.90;;;8.45;100.00;100039.81;5105641;29;20075;-74
2022/11/24 02:30:42;;;;;;;3.75;1.17;;;8.50;99.90;;;8.48;100.00;100049.44;5105976;29;20055;-74
2022/11/24 02:33:15;;;;;;;8.20;1.73;;;8.60;99.90;;;8.48;100.00;100044.25;5106879;29;20058;-73
2022/11/24 02:35:48;;;;;;;5.13;1.30;;;8.60;99.90;;;8.49;100.00;100053.81;5107158;29;20048;-74
2022/11/24 02:38:30;;;;;;;5.15;1.40;;;8.60;99.90;;;8.48;100.00;100052.91;5106688;29;20055;-74
2022/11/24 02:41:06;;;;;;;3.20;1.17;;;8.60;99.90;;;8.50;100.00;100051.25;5106659;29;20051;-74
2022/11/24 02:43:45;;;;;;;5.53;1.42;;;8.60;99.90;;;8.52;100.00;100056.47;5105105;29;20567;-74
2022/11/24 02:46:17;;;;;;;3.63;1.30;;;8.60;99.90;;;8.55;100.00;100056.59;5106777;29;20055;-75
2022/11/24 02:48:49;;;;;;;5.75;1.70;;;8.70;99.90;;;8.52;100.00;100052.16;5105961;29;20058;-75
2022/11/24 02:51:21;;;;;;;7.43;1.65;;;8.60;99.90;;;8.53;100.00;100053.91;5106508;29;20409;-74
2022/11/24 02:53:53;;;;;;;6.60;2.28;;;8.60;99.90;;;8.54;100.00;100049.59;5120899;29;20047;-74
2022/11/24 02:56:26;;;;;;;7.55;1.48;;;8.70;99.90;;;8.53;100.00;100047.84;5106653;29;20058;-74
2022/11/24 02:59:00;;;;;;;7.55;1.20;;;8.70;99.90;;;8.56;100.00;100055.75;5106159;29;20054;-75
2022/11/24 03:01:32;;;;;;;6.22;1.40;;;8.60;99.90;;;8.57;100.00;100057.50;5106715;29;20059;-75
2022/11/24 03:04:04;;;;;;;6.13;1.52;;;8.70;99.90;;;8.57;100.00;100055.78;5105984;29;20572;-74
2022/11/24 03:06:37;;;;;;;10.45;1.42;;;8.70;99.90;;;8.57;100.00;100049.72;5106602;28;20130;-75
2022/11/24 03:09:10;;;;;;;5.80;1.52;;;8.70;99.90;;;8.56;100.00;100048.84;5104665;29;20552;-74
2022/11/24 03:11:42;;;;;;;4.25;1.30;;;8.70;99.90;;;8.55;100.00;100052.28;5105963;29;20516;-74
2022/11/24 03:14:15;;;;;;;9.45;1.52;;;8.70;99.90;;;8.58;100.00;100054.06;5106087;29;20058;-75
2022/11/24 03:16:48;;;;;;;7.18;1.35;;;8.60;99.90;;;8.60;100.00;100062.78;5104763;29;20051;-75
2022/11/24 03:19:20;;;;;;;6.78;2.08;;;8.70;99.90;;;8.61;100.00;100051.59;5106155;29;20039;-75
2022/11/24 03:21:53;;;;;;;6.25;1.58;;;8.70;99.90;;;8.63;100.00;100055.09;5106137;29;20051;-75
2022/11/24 03:24:25;;;;;;;7.28;1.15;;;8.70;99.90;;;8.65;100.00;100048.22;5106037;29;20051;-74
2022/11/24 03:26:57;;;;;;;3.13;1.20;;;8.80;99.90;;;8.66;100.00;100056.06;5106292;29;20058;-74
2022/11/24 03:29:31;;;;;;;3.60;1.15;;;8.80;99.90;;;8.68;100.00;100056.13;5105792;29;20400;-74
2022/11/24 03:32:03;;;;;;;6.10;1.25;;;8.80;99.90;;;8.70;100.00;100054.44;5104584;29;20417;-74
2022/11/24 03:34:36;;;;;;;6.18;1.52;;;8.80;99.90;;;8.72;100.00;100063.16;5120243;29;20433;-74
2022/11/24 03:37:08;;;;;;;7.68;1.30;;;8.80;99.90;;;8.74;100.00;100058.91;5104688;29;20151;-75
2022/11/24 03:39:40;;;;;;;5.07;1.27;;;8.80;99.90;;;8.76;100.00;100065.03;5105770;29;20070;-74
2022/11/24 03:42:13;;;;;;;10.27;1.30;;;8.80;99.90;;;8.78;100.00;100065.06;5105833;29;20107;-75
2022/11/24 03:44:47;;;;;;;7.60;1.55;;;8.90;99.90;;;8.82;100.00;100078.22;5105601;29;20509;-75
2022/11/24 03:47:19;;;;;;;7.32;1.38;;;8.90;99.90;;;8.83;100.00;100076.50;5105861;29;20054;-75
2022/11/24 03:49:51;;;;;;;9.70;1.40;;;8.90;99.90;;;8.85;100.00;100083.50;5103900;29;20054;-75
2022/11/24 03:52:25;;;;;;;6.55;1.30;;;8.90;99.90;;;8.88;100.00;100083.59;5104441;29;20055;-75
2022/11/24 03:54:57;;;;;;;8.10;1.58;;;9.00;99.90;;;8.89;100.00;100082.75;5105593;29;20059;-75
2022/11/24 03:57:29;;;;;;;8.43;1.55;;;9.00;99.90;;;8.91;100.00;100083.69;5105575;29;20043;-75
2022/11/24 04:00:05;;;;;;;5.85;1.52;;;9.00;99.90;;;8.92;100.00;100080.25;5105331;29;20545;-75
2022/11/24 04:02:38;;;;;;;6.40;1.42;;;9.00;99.90;;;8.92;100.00;100075.03;5106285;29;20055;-75
2022/11/24 04:05:10;;;;;;;5.65;1.40;;;9.00;99.90;;;8.93;100.00;100084.63;5103670;29;20078;-75
2022/11/24 04:07:43;;;;;;;7.13;1.25;;;9.00;99.90;;;8.93;100.00;100084.63;5105528;29;20051;-75
2022/11/24 04:10:16;;;;;;;3.67;1.30;;;9.00;99.90;;;8.92;100.00;100090.63;5105111;29;20047;-75
2022/11/24 04:12:48;;;;;;;5.95;1.80;;;9.00;99.90;;;8.92;100.00;100094.94;5105192;29;20066;-74
2022/11/24 04:15:22;;;;;;;6.43;1.80;;;9.00;99.90;;;8.93;100.00;100096.72;5105096;29;20075;-74
2022/11/24 04:17:56;;;;;;;;;;;9.00;99.90;;;8.92;100.00;100094.94;5105636;29;20051;-75
2022/11/24 04:20:29;;;;;;;6.18;1.73;;;9.00;99.90;;;8.92;100.00;100095.84;5105088;29;19927;-75
2022/11/24 04:23:01;;;;;;;7.55;2.38;;;9.00;99.90;;;8.94;100.00;100094.19;5103055;29;20054;-75
2022/11/24 04:25:34;;;;;;;7.22;1.60;;;9.00;99.90;;;8.92;100.00;100090.63;5104917;29;20040;-75
2022/11/24 04:28:06;;;;;;;6.13;1.85;;;9.00;99.90;;;8.94;100.00;100104.59;5104583;29;20047;-75
2022/11/24 04:30:43;;;;;;;5.75;1.70;;;9.00;99.90;;;8.95;100.00;100106.34;5104531;29;20050;-75
2022/11/24 04:33:15;;;;;;;7.60;2.30;;;9.00;99.90;;;8.97;100.00;100111.59;5103218;29;20416;-75
2022/11/24 04:35:47;;;;;;;11.02;2.80;;;9.10;99.90;;;8.98;100.00;100102.94;5104727;28;20047;-75
2022/11/24 04:38:19;;;;;;;5.60;1.63;;;9.10;99.90;;;8.98;100.00;100111.63;5103166;29;20456;-75
2022/11/24 04:40:51;;;;;;;8.18;1.90;;;9.10;99.90;;;8.97;100.00;100103.78;5104572;29;20126;-75
2022/11/24 04:43:24;;;;;;;6.40;1.40;;;9.10;99.90;;;8.97;100.00;100111.59;5104542;29;20050;-75
2022/11/24 04:46:00;;;;;;;7.45;1.45;;;9.10;99.90;;;8.96;100.00;100107.22;5104803;29;20048;-72
2022/11/24 04:48:32;;;;;;;5.82;1.80;;;9.10;99.90;;;8.95;100.00;100108.94;5102912;29;20055;-72
2022/11/24 04:51:05;;;;;;;4.40;1.38;;;9.10;99.90;;;8.95;100.00;100115.84;5103511;29;20523;-72
2022/11/24 04:53:37;;;;;;;8.15;1.40;;;9.00;99.90;;;8.94;100.00;100122.78;5103163;29;20051;-72
2022/11/24 04:56:09;;;;;;;4.82;1.25;;;9.00;99.90;;;8.97;100.00;100130.66;5104334;29;20052;-72
2022/11/24 04:58:42;;;;;;;8.57;1.50;;;9.00;99.90;;;8.97;100.00;100122.84;5104369;29;20347;-73
2022/11/24 05:01:16;;;;;;;5.53;1.48;;;9.10;99.90;;;9.00;100.00;100118.56;5104542;29;20048;-71
2022/11/24 05:03:48;;;;;;;5.43;1.30;;;9.10;99.90;;;9.01;100.00;100131.66;5103185;29;20159;-72
2022/11/24 05:06:20;;;;;;;5.63;1.70;;;9.10;99.90;;;9.03;100.00;100132.56;5104658;29;20055;-72
2022/11/24 05:08:53;;;;;;;2.65;1.25;;;9.10;99.90;;;9.04;100.00;100133.44;5104242;29;20047;-72
2022/11/24 05:11:26;;;;;;;7.22;1.42;;;9.10;99.90;;;9.06;100.00;100134.38;5104268;29;20110;-72
2022/11/24 05:13:59;;;;;;;11.73;1.83;;;9.10;99.90;;;9.09;100.00;100137.06;5102880;29;20412;-71
2022/11/24 05:16:32;;;;;;;6.28;1.77;;;9.10;99.90;;;9.11;100.00;100138.00;5102224;29;20529;-71
2022/11/24 05:19:05;;;;;;;6.90;1.60;;;9.10;99.90;;;9.10;100.00;100137.09;5102852;29;20138;-71
2022/11/24 05:21:37;;;;;;;4.38;1.35;;;9.20;99.90;;;9.11;100.00;100143.19;5103064;29;20058;-71
2022/11/24 05:24:10;;;;;;;5.90;1.50;;;9.20;99.90;;;9.11;100.00;100148.38;5102955;29;20542;-71
2022/11/24 05:26:42;;;;;;;5.93;1.52;;;9.20;99.90;;;9.11;100.00;100144.06;5104007;29;20119;-71
2022/11/24 05:29:15;;;;;;;5.88;1.30;;;9.20;99.90;;;9.12;100.00;100157.94;5103102;29;20491;-71
2022/11/24 05:31:49;;;;;;;6.97;1.30;;;9.20;99.90;;;9.13;100.00;100151.94;5124137;23;20057;-71
2022/11/24 05:34:23;;;;;;;3.92;1.05;;;9.20;99.90;;;9.14;100.00;100153.69;5120024;28;20047;-70
2022/11/24 05:37:01;;;;;;;4.47;1.45;;;9.20;99.90;;;9.14;100.00;100158.91;5122890;29;20415;-71
2022/11/24 05:39:35;;;;;;;6.28;1.33;;;9.20;99.90;;;9.14;100.00;100153.69;5121491;29;20070;-72
2022/11/24 05:44:56;;;;;;;;;;;9.20;99.90;;;9.14;100.00;100164.09;5123297;28;20047;-70
2022/11/24 05:47:30;;;;;;;3.70;1.10;;;9.20;99.90;;;9.16;100.00;100167.63;5122453;28;19930;-70
2022/11/24 05:50:02;;;;;;;5.75;1.38;;;9.20;99.90;;;9.17;100.00;100166.78;5122924;28;20543;-71
2022/11/24 05:52:34;;;;;;;5.93;1.50;;;9.20;99.90;;;9.19;100.00;100175.50;5123589;28;20456;-71
2022/11/24 05:55:08;;;;;;;4.88;1.58;;;9.20;99.90;;;9.20;100.00;100185.97;5123114;28;20055;-70
2022/11/24 05:57:40;;;;;;;4.88;1.50;;;9.20;99.90;;;9.23;100.00;100192.97;5123037;28;20049;-71
2022/11/24 06:00:16;;;;;;;3.30;0.98;;;9.30;99.90;;;9.24;100.00;100194.72;5121651;28;20430;-72
2022/11/24 06:02:50;;;;;;;4.35;1.35;;;9.30;99.90;;;9.24;100.00;100186.94;5123280;28;20047;-71
2022/11/24 06:05:22;;;;;;;5.68;1.10;;;9.30;99.90;;;9.25;100.00;100199.97;5123371;28;20130;-70
2022/11/24 06:07:56;;;;;;;5.10;1.05;;;9.30;99.90;;;9.28;100.00;100208.72;5123118;28;20070;-73
2022/11/24 06:10:29;;;;;;;5.50;1.27;;;9.30;99.90;;;9.31;100.00;100214.00;5123170;28;20055;-71
2022/11/24 06:13:06;;;;;;;7.88;2.05;;;9.30;99.90;;;9.31;100.00;100217.47;5123008;29;20050;-73
2022/11/24 06:15:39;;;;;;;7.75;1.73;;;9.40;99.90;;;9.32;100.00;100237.44;5123037;28;20444;-70
2022/11/24 06:18:12;;;;;;;7.65;1.88;;;9.40;99.90;;;9.34;100.00;100232.31;5122838;28;20580;-72
2022/11/24 06:20:45;;;;;;;7.15;1.33;;;9.40;99.90;;;9.33;100.00;100235.75;5123623;28;20506;-71
2022/11/24 06:23:17;;;;;;;7.38;1.42;;;9.40;99.90;;;9.32;100.00;100237.44;5122961;28;20056;-71
2022/11/24 06:25:50;;;;;;;4.00;1.10;;;9.40;99.90;;;9.31;100.00;100240.91;5123314;28;20132;-72
2022/11/24 06:28:23;;;;;;;6.70;1.27;;;9.40;99.90;;;9.32;100.00;100236.56;5122899;28;20516;-72
2022/11/24 06:30:55;;;;;;;4.68;1.50;;;9.40;99.90;;;9.31;100.00;100235.69;5122863;28;20468;-70
2022/11/24 06:33:32;;;;;;;5.97;1.17;;;9.40;99.90;;;9.33;100.00;100244.44;5123086;28;20047;-70
2022/11/24 06:36:08;;;;;;;6.38;1.10;;;9.40;99.90;;;9.32;100.00;100247.84;5123177;28;20043;-71
2022/11/24 06:38:40;;;;;;;5.28;1.20;;;9.40;99.90;;;9.33;100.00;100251.38;5121361;29;20062;-72
2022/11/24 06:41:15;;;;;;;2.97;0.90;;;9.40;99.90;;;9.34;100.00;100251.41;5122894;28;20054;-71
2022/11/24 06:43:47;;;;;;;3.17;0.95;;;9.40;99.90;;;9.34;100.00;100251.41;5122733;28;20050;-73
2022/11/24 06:46:19;;;;;;;1.58;0.82;;;9.40;99.90;;;9.34;100.00;100259.22;5125965;28;20520;-70
2022/11/24 06:48:53;;;;;;;2.70;0.90;;;9.40;99.90;;;9.34;100.00;100266.13;5126148;28;20101;-71
2022/11/24 06:51:27;;;;;;;3.70;1.20;;;9.40;99.90;;;9.33;100.00;100260.06;5126017;28;20043;-73
2022/11/24 06:54:00;;;;;;;4.28;1.70;;;9.40;99.90;;;9.33;100.00;100269.59;5124994;29;20051;-70
2022/11/24 06:56:32;;;;;;;5.35;1.88;;;9.40;99.90;;;9.32;100.00;100260.84;5126444;28;20047;-71
2022/11/24 06:59:05;;;;;;;4.15;1.38;;;9.30;99.90;;;9.31;100.00;100259.09;5124600;29;20051;-71
2022/11/24 07:01:37;;;;;;;2.45;1.20;;;9.40;99.90;;;9.30;100.00;100257.34;5126304;28;20054;-70
2022/11/24 07:04:11;;;;;;;3.45;1.48;;;9.30;99.90;;;9.31;100.00;100272.09;5126231;28;20088;-55
2022/11/24 07:06:43;;;;;;;5.72;2.20;;;9.30;99.90;;;9.32;100.00;100267.78;5124674;29;20055;-58
2022/11/24 07:09:15;;;;;;;5.10;1.27;;;9.30;99.90;;;9.30;100.00;100267.75;5125530;28;20048;-58
2022/11/24 07:11:47;;;;;;;4.40;1.08;;;9.30;99.90;;;9.29;100.00;100279.00;5125639;28;20043;-57
2022/11/24 07:14:19;;;;;;;6.78;1.35;;;9.30;99.90;;;9.30;100.00;100285.06;5126029;28;20512;-57
2022/11/24 07:16:51;;;;;;;5.50;1.60;;;9.40;99.90;;;9.29;100.00;100297.19;5125973;28;20130;-56
2022/11/24 07:19:25;;;;;;;3.72;1.58;;;9.30;99.90;;;9.26;100.00;100297.09;5126064;28;20055;-57
2022/11/24 07:21:57;;;;;;;8.10;1.55;;;9.30;99.90;;;9.27;100.00;100296.28;5125868;28;20043;-56
2022/11/24 07:24:29;;;;;;;5.25;1.65;;;9.30;99.90;;;9.25;100.00;100300.53;5126093;28;20054;-58
2022/11/24 07:27:01;;;;;;;4.45;1.63;;;9.30;99.90;;;9.25;100.00;100304.00;5125793;28;20043;-57
2022/11/24 07:29:33;;;;;;;7.72;2.00;;;9.30;99.90;;;9.25;100.00;100311.81;5125348;29;20051;-57
2022/11/24 07:32:05;;;;;;;5.72;1.67;;;9.30;99.90;;;9.24;100.00;100328.25;5125502;28;20058;-57
2022/11/24 07:34:39;;;;;;;4.18;2.03;;;9.30;99.90;;;9.24;100.00;100330.84;5125782;29;20423;-58
2022/11/24 07:37:11;;;;;;;3.58;1.77;;;9.30;99.90;;;9.24;100.00;100332.56;5125948;28;20051;-59
2022/11/24 07:39:43;;;;;;;5.93;1.70;;;9.30;99.90;;;9.23;100.00;100336.00;5125446;28;20504;-57
2022/11/24 07:42:15;;;;;;;6.57;1.55;;;9.30;99.90;;;9.20;100.00;100335.91;5125348;28;20047;-57
2022/11/24 07:44:47;;;;;;;4.43;1.30;;;9.20;99.90;;;9.17;100.00;100346.19;5125361;29;20069;-58
2022/11/24 07:47:19;;;;;;;4.68;1.70;;;9.20;99.90;;;9.15;100.00;100347.88;5125578;29;20049;-57
2022/11/24 07:49:52;;;;;;;4.80;1.13;;;9.20;99.90;;;9.13;100.00;100354.75;5125144;28;20069;-57
2022/11/24 07:52:25;;;;;;;3.20;1.38;;;9.20;99.90;;;9.12;100.00;100358.16;5125624;28;20051;-56
2022/11/24 07:54:57;;;;;;;5.60;1.55;;;9.20;99.90;;;9.13;100.00;100368.63;5125335;28;20051;-57
2022/11/24 07:57:29;;;;;;;5.43;1.50;;;9.20;99.90;;;9.13;100.00;100378.16;5124475;28;20047;-56
2022/11/24 08:00:02;;;;;;;2.72;1.48;;;9.20;99.90;;;9.12;100.00;100373.75;5124636;28;20057;-57
2022/11/24 08:02:36;;;;;;;2.25;1.13;;;9.20;99.90;;;9.10;100.00;100373.72;5116836;28;20095;-58
2022/11/24 08:05:10;;;;;;;2.17;1.05;;;9.10;99.90;;;9.12;100.00;100394.56;5104392;29;20047;-56
2022/11/24 08:07:42;;;;;;;2.15;0.80;;;9.20;99.90;;;9.13;100.00;100393.75;5105084;29;20099;-57
2022/11/24 08:10:15;;;;;;;1.60;0.80;;;9.20;99.90;;;9.15;100.00;100392.97;5105373;29;20048;-57
2022/11/24 08:12:47;;;;;;;2.88;1.40;;;9.20;99.90;;;9.17;100.00;100399.09;5105332;29;20047;-57
2022/11/24 08:15:19;;;;;;;2.45;1.00;;;9.20;99.90;;;9.20;100.00;100399.22;5114757;29;20304;-58
2022/11/24 08:17:51;;;;;;;2.83;1.02;;;9.20;99.90;;;9.21;100.00;100405.31;5105134;28;20527;-59
2022/11/24 08:20:25;;;;;;;2.83;1.00;;;9.20;99.90;;;9.23;100.00;100411.44;5105052;29;20513;-58
2022/11/24 08:22:58;;;;;;;3.15;1.40;;;9.20;99.90;;;9.25;100.00;100413.22;5105019;29;20505;-57
2022/11/24 08:25:31;;;;;;;3.63;1.20;;;9.30;99.90;;;9.30;100.00;100416.00;5111091;29;20091;-55
2022/11/24 08:28:04;;;;;;;4.15;1.10;;;9.30;99.90;;;9.35;100.00;100422.25;5122819;28;20079;-59
2022/11/24 08:30:37;;;;;;;3.42;0.88;;;9.30;99.90;;;9.46;100.00;100418.28;5124126;28;20047;-57
2022/11/24 08:33:09;;;;;;;3.55;1.23;;;9.50;99.90;;;9.62;100.00;100417.06;5124343;28;20138;-57
2022/11/24 08:35:42;;;;;;;4.05;1.35;;;9.60;99.90;;;9.78;100.00;100423.69;5124433;28;20047;-58
2022/11/24 08:38:16;;;;;;;3.92;1.20;;;9.70;99.90;;;9.90;100.00;100424.03;5122429;28;20384;-58
2022/11/24 08:40:48;;;;;;;3.10;0.93;;;9.80;99.90;;;10.04;100.00;100417.56;5124668;28;20043;-58
2022/11/24 08:43:20;;;;;;;4.65;1.10;;;10.00;99.90;;;10.14;100.00;100423.91;5127713;28;20079;-59
2022/11/24 08:45:53;;;;;;;4.22;0.68;;;10.10;99.90;;;10.18;100.00;100432.72;5126472;28;20129;-58
2022/11/24 08:48:25;;;;;;;3.28;1.20;;;10.20;99.90;;;10.21;100.00;100438.00;5125994;28;20591;-58
2022/11/24 08:50:59;;;;;;;2.88;1.13;;;10.20;99.90;;;10.27;100.00;100433.03;5124942;28;20134;-58
2022/11/24 08:53:31;;;;;;;2.40;0.80;;;10.20;99.90;;;10.33;100.00;100448.84;5124377;28;20070;-56
2022/11/24 08:56:05;;;;;;;2.83;0.70;;;10.30;99.90;;;10.35;100.00;100459.31;5122904;28;20051;-57
2022/11/24 08:58:38;;;;;;;1.77;0.82;;;10.30;99.90;;;10.33;100.00;100461.88;5118805;28;20135;-57
2022/11/24 09:01:12;;;;;;;1.67;0.90;;;10.30;99.90;;;10.32;100.00;100463.59;5133188;28;20060;-56
2022/11/24 09:03:48;;;;;;;2.22;0.70;;;10.30;99.90;;;10.29;100.00;100460.88;5133766;28;20113;-55
2022/11/24 09:06:25;;;;;;;2.17;0.80;;;10.30;99.90;;;10.28;100.00;100464.31;5130224;28;20043;-57
2022/11/24 09:08:59;;;;;;;2.85;0.70;;;10.30;99.90;;;10.27;100.00;100469.50;5120324;28;20047;-55
2022/11/24 09:11:33;;;;;;;3.05;0.73;;;10.30;99.90;;;10.25;100.00;100471.19;5133266;28;20039;-55
2022/11/24 09:14:06;;;;;;;3.58;0.70;;;10.20;99.90;;;10.24;100.00;100485.06;5136010;28;20055;-55
2022/11/24 09:16:38;;;;;;;2.38;0.70;;;10.20;99.90;;;10.23;100.00;100481.53;5124594;28;20039;-55
2022/11/24 09:19:10;;;;;;;1.27;0.80;;;10.30;99.90;;;10.24;100.00;100496.34;5123984;28;20407;-56
2022/11/24 09:21:43;;;;;;;2.17;0.60;;;10.20;99.90;;;10.24;100.00;100495.47;5122489;28;20046;-56
2022/11/24 09:24:16;;;;;;;2.38;0.57;;;10.20;99.90;;;10.24;100.00;100500.69;5131690;28;20070;-56
2022/11/24 09:26:48;;;;;;;1.85;0.63;;;10.20;99.90;;;10.25;100.00;100502.44;5135693;28;20407;-56
2022/11/24 09:29:20;;;;;;;4.47;1.38;;;10.20;99.90;;;10.25;100.00;100507.66;5143945;28;20057;-56
2022/11/24 09:31:53;;;;;;;1.83;0.70;;;10.20;99.90;;;10.25;100.00;100498.13;5143711;28;20039;-56
2022/11/24 09:34:25;;;;;;;2.72;0.63;;;10.20;99.90;;;10.27;100.00;100516.38;5144598;28;20043;-57
2022/11/24 09:36:58;;;;;;;5.68;1.30;;;10.20;99.90;;;10.41;100.00;100506.38;5143859;28;20133;-56
2022/11/24 09:39:30;;;;;;;4.30;0.90;;;10.40;99.90;;;10.57;100.00;100516.47;5143539;28;20053;-58
2022/11/24 09:42:15;;;;;;;2.20;0.80;;;10.50;99.90;;;10.57;100.00;100519.94;5143969;28;20094;-56
2022/11/24 09:45:09;;;;;;;2.15;0.65;;;10.60;99.90;;;10.53;100.00;100527.63;5144020;28;20043;-56
2022/11/24 09:47:59;;;;;;;1.75;0.80;;;10.60;99.90;;;10.47;100.00;100536.13;5143730;28;20054;-55
2022/11/24 09:50:35;;;;;;;3.00;0.70;;;10.50;99.90;;;10.44;100.00;100535.16;5124394;28;20051;-56
2022/11/24 09:53:17;;;;;;;1.98;0.80;;;10.50;99.90;;;10.42;100.00;100534.22;5123974;28;20058;-55
2022/11/24 09:55:52;;;;;;;1.98;1.08;;;10.40;99.90;;;10.42;100.00;100532.50;5123956;28;20542;-58
2022/11/24 09:58:48;;;;;;;2.30;0.50;;;10.40;99.90;;;10.45;100.00;100535.22;5122487;28;20158;-55
2022/11/24 10:01:24;;;;;;;2.53;0.70;;;10.40;99.90;;;10.50;100.00;100551.00;5116215;28;20079;-56
2022/11/24 10:03:57;;;;;;;1.77;0.90;;;10.50;99.90;;;10.55;100.00;100545.06;5117565;28;20050;-57
2022/11/24 10:06:39;;;;;;;3.95;1.15;;;10.50;99.90;;;10.60;100.00;100553.03;5133195;28;20047;-56
2022/11/24 10:09:50;;;;;;;2.72;0.60;;;10.50;99.90;;;10.67;100.00;100546.28;5140613;28;20039;-57
2022/11/24 10:12:42;;;;;;;2.75;0.73;;;10.60;99.90;;;10.82;100.00;100544.13;5118621;28;20411;-56
2022/11/24 10:15:29;;;;;;;2.85;1.10;;;10.70;99.90;;;11.02;100.00;100548.22;5129196;28;20479;-56
2022/11/24 10:18:34;;;;;;;3.63;0.73;;;10.80;99.90;;;11.23;100.00;100557.50;5124566;28;20047;-55
2022/11/24 10:21:26;;;;;;;4.82;0.85;;;11.00;99.90;;;11.45;100.00;100553.75;5106553;29;20050;-58
2022/11/24 10:24:22;;;;;;;4.65;0.70;;;11.20;99.90;;;11.62;100.00;100568.16;5107783;29;20045;-57
2022/11/24 10:27:02;;;;;;;4.03;0.80;;;11.40;99.90;;;11.74;100.00;100562.38;5107767;29;20416;-55
2022/11/24 10:29:39;;;;;;;2.67;0.60;;;11.50;99.90;;;11.83;100.00;100566.16;5107450;29;20051;-57
2022/11/24 10:32:18;;;;;;;3.50;1.10;;;11.70;99.90;;;11.95;100.00;100569.06;5107410;29;20047;-57
2022/11/24 10:34:50;;;;;;;5.60;0.82;;;11.80;99.90;;;12.09;100.00;100571.16;5113256;28;20139;-56
2022/11/24 10:37:28;;;;;;;1.85;0.75;;;11.90;99.90;;;12.20;100.00;100573.19;5128832;28;20500;-56
2022/11/24 10:40:09;;;;;;;1.80;0.63;;;12.00;99.90;;;12.29;100.00;100569.03;5126559;28;20106;-56
2022/11/24 10:42:43;;;;;;;3.95;0.93;;;12.10;99.90;;;12.32;100.00;100584.78;5116254;28;20090;-56
2022/11/24 10:45:22;;;;;;;2.40;0.70;;;12.10;99.90;;;12.27;100.00;100576.84;5127027;28;20134;-57
2022/11/24 10:47:54;;;;;;;2.45;0.70;;;12.10;99.90;;;12.32;100.00;100575.19;5107478;29;20058;-55
2022/11/24 10:50:28;;;;;;;3.78;0.75;;;12.20;99.90;;;12.42;100.00;100576.31;5106394;29;20044;-57